Latest Weather Observations for Norseman Airport

IDW60801

Issued at 11:03 pm WST Monday 16 January 2017 (issued every 30 minutes, with the page automatically refreshed every 10 minutes)

About weather observations | Map of weather stations | Latest weather observations for WA | Other Formats
Station Details ID: 012009 Name: NORSEMAN AERO Lat: -32.21 Lon: 121.75 Height: 262.5 m
Data from the previous 72 hours. | See also: Recent months at Norseman Airport
Date/Time
WST
Temp
°C
App
Temp
°C
Dew
Point
°C
Rel
Hum
%
Delta-T
°C
Wind Press
QNH
hPa
Press
MSL
hPa
Rain since
9am
mm
Dir  Spd
km/h
Gust
km/h
Spd
kts
Gust
kts
16/11:00pm 14.0 11.4 11.9 87 1.1 SSE 17 22 9 12 1013.8 1012.5 1.0
16/10:30pm 14.4 11.1 11.6 83 1.5 SSE 20 32 11 17 1013.4 1012.1 0.2
16/10:00pm 14.8 12.0 12.7 87 1.2 SSE 19 30 10 16 1013.2 1011.9 0.2
16/09:30pm 15.5 13.3 13.2 86 1.3 S 17 28 9 15 1012.6 1011.3 0.2
16/09:00pm 15.9 14.1 13.4 85 1.4 SSE 15 22 8 12 1012.3 1011.0 0.2
16/08:30pm 16.8 14.3 13.5 81 1.9 S 19 24 10 13 1012.0 1010.6 0.0
16/08:00pm 17.6 14.5 13.5 77 2.3 S 22 43 12 23 1011.0 1009.7 0.0
16/07:30pm 18.3 14.9 13.6 74 2.7 S 24 39 13 21 1010.6 1009.3 0.0
16/07:00pm 18.8 15.0 13.6 72 3.0 S 26 41 14 22 1010.2 1008.9 0.0
16/06:30pm 19.4 15.1 13.1 67 3.6 S 28 48 15 26 1009.8 1008.5 0.0
16/06:00pm 20.1 15.8 13.1 64 4.0 S 28 46 15 25 1009.1 1007.8 0.0
16/05:30pm 21.6 17.5 12.7 57 5.1 S 26 41 14 22 1008.5 1007.1 0.0
16/05:00pm 22.4 16.9 11.8 51 6.0 S 32 46 17 25 1007.8 1006.4 0.0
16/04:30pm 24.1 18.5 12.1 47 6.9 S 33 50 18 27 1006.8 1005.5 0.0
16/04:00pm 25.9 20.3 11.6 40 8.3 S 32 46 17 25 1006.4 1005.1 0.0
16/03:30pm 28.0 23.2 11.5 35 9.6 SSE 28 44 15 24 1006.0 1004.7 0.0
16/03:00pm 28.5 23.3 11.6 35 9.9 S 30 44 16 24 1006.1 1004.8 0.0
16/02:30pm 29.1 24.7 11.6 33 10.2 S 26 44 14 24 1006.1 1004.8 0.0
16/02:00pm 29.2 24.8 11.7 34 10.3 SSE 26 39 14 21 1006.2 1004.9 0.0
16/01:30pm 30.4 27.2 11.9 32 10.9 S 20 41 11 22 1006.3 1005.0 0.0
16/01:00pm 28.5 24.7 12.4 37 9.5 S 24 33 13 18 1006.5 1005.2 0.0
16/12:30pm 29.3 26.5 13.1 37 9.7 S 20 32 11 17 1006.8 1005.5 0.0
16/12:00pm 27.4 24.2 13.0 41 8.6 SSE 22 32 12 17 1006.8 1005.5 0.0
16/11:30am 26.1 22.8 12.9 44 7.8 SSE 22 32 12 17 1006.8 1005.5 0.0
16/11:00am 26.1 23.3 13.2 44 7.7 S 20 28 11 15 1007.0 1005.7 0.0
16/10:30am 24.7 22.1 13.9 51 6.4 S 20 26 11 14 1007.2 1005.8 0.0
16/10:00am 23.5 21.1 13.7 54 5.8 S 19 26 10 14 1007.4 1006.0 0.0
16/09:30am 22.1 20.3 14.5 62 4.5 S 17 26 9 14 1007.7 1006.3 0.0
16/09:00am 21.2 19.6 15.1 68 3.7 SSW 17 22 9 12 1007.9 1006.5 0.0
16/08:30am 20.1 17.8 14.7 71 3.2 SSW 20 28 11 15 1007.9 1006.5 0.0
16/08:00am 19.5 17.5 15.0 75 2.7 SSW 19 28 10 15 1008.2 1006.8 0.0
16/07:30am 18.8 16.8 14.9 78 2.3 SSW 19 24 10 13 1008.1 1006.7 0.0
16/07:00am 18.7 17.2 15.2 80 2.1 SSW 17 22 9 12 1008.2 1006.8 0.0
16/06:30am 18.1 16.1 15.0 82 1.8 S 19 24 10 13 1007.9 1006.5 0.0
16/06:00am 17.9 17.1 15.0 83 1.7 S 13 17 7 9 1007.6 1006.2 0.0
16/05:30am 17.8 16.5 14.9 83 1.7 S 15 22 8 12 1007.4 1006.0 0.0
16/05:00am 17.8 16.9 14.9 83 1.7 S 13 20 7 11 1007.2 1005.8 0.0
16/04:30am 17.9 16.7 15.0 83 1.7 SSW 15 22 8 12 1007.2 1005.8 0.0
16/04:00am 18.1 15.5 15.0 82 1.8 SSW 22 30 12 16 1006.9 1005.6 0.0
16/03:30am 18.6 16.4 14.9 79 2.2 SSW 20 28 11 15 1006.5 1005.2 0.0
16/03:00am 19.4 17.2 14.9 75 2.7 SSW 20 28 11 15 1006.5 1005.2 0.0
16/02:30am 20.5 17.9 14.8 70 3.4 SSW 22 32 12 17 1006.2 1004.9 0.0
16/02:00am 22.4 19.0 13.7 58 5.1 SSW 24 35 13 19 1005.9 1004.6 0.0
16/01:30am 27.2 23.0 5.5 25 11.3 SSW 17 32 9 17 1005.2 1003.8 0.0
16/01:00am 28.0 25.7 5.6 24 11.8 N 7 15 4 8 1004.9 1003.5 0.0
16/12:30am 28.3 25.9 5.2 23 12.1 NNE 7 9 4 5 1004.9 1003.5 0.0
16/12:00am 28.3 27.2 5.2 23 12.1 CALM 0 0 0 0 1005.1 1003.7 0.0
 
Date/Time
WST
Temp
°C
App
Temp
°C
Dew
Point
°C
Rel
Hum
%
Delta-T
°C
Wind Press
QNH
hPa
Press
MSL
hPa
Rain since
9am
mm
Dir  Spd
km/h
Gust
km/h
Spd
kts
Gust
kts
15/11:30pm 29.4 26.3 5.5 22 12.6 N 11 15 6 8 1005.2 1003.8 0.0
15/11:00pm 30.0 26.7 4.6 20 13.3 NNE 11 13 6 7 1005.4 1004.0 0.0
15/10:30pm 31.2 26.5 3.3 17 14.4 NE 17 20 9 11 1005.6 1004.3 0.0
15/10:00pm 31.1 26.6 4.0 18 14.2 NNE 17 20 9 11 1005.9 1004.6 0.0
15/09:30pm 31.2 26.5 3.3 17 14.4 NNE 17 22 9 12 1006.2 1004.9 0.0
15/09:00pm 31.1 26.8 3.2 17 14.4 NE 15 19 8 10 1006.4 1005.1 0.0
15/08:30pm 31.1 27.0 2.3 16 14.6 NE 13 15 7 8 1006.6 1005.3 0.0
15/08:00pm 31.9 28.0 1.1 14 15.4 ENE 11 13 6 7 1006.5 1005.2 0.0
15/07:30pm 32.4 28.4 0.5 13 15.8 ENE 11 15 6 8 1006.5 1005.2 0.0
15/07:00pm 33.1 28.6 -0.1 12 16.4 NE 13 17 7 9 1006.5 1005.2 0.0
15/06:30pm 33.8 28.7 -2.0 10 17.2 NE 15 20 8 11 1006.3 1005.0 0.0
15/06:00pm 34.3 28.9 -1.7 10 17.5 NE 17 24 9 13 1006.2 1004.9 0.0
15/05:30pm 34.5 28.5 -2.9 9 17.8 NE 19 26 10 14 1006.1 1004.8 0.0
15/05:00pm 34.8 28.7 -2.7 9 18.0 NE 20 26 11 14 1006.1 1004.8 0.0
15/04:30pm 34.7 28.7 -2.8 9 17.9 NNE 19 26 10 14 1006.3 1005.0 0.0
15/04:00pm 34.5 29.1 -1.5 10 17.5 NNE 17 26 9 14 1006.6 1005.3 0.0
15/03:30pm 35.2 29.8 -1.0 10 17.8 N 17 28 9 15 1006.8 1005.5 0.0
15/03:00pm 34.9 29.1 -1.2 10 17.7 NNW 19 32 10 17 1007.4 1006.0 0.0
15/02:30pm 36.2 31.5 1.1 11 18.0 NNE 15 28 8 15 1007.8 1006.4 0.0
15/02:00pm 34.0 28.8 3.7 15 16.0 N 20 32 11 17 1008.4 1007.0 0.0
15/01:30pm 33.3 28.2 5.8 18 14.9 N 22 32 12 17 1009.0 1007.7 0.0
15/01:00pm 33.4 28.3 5.9 18 15.0 N 22 33 12 18 1009.4 1008.1 0.0
15/12:30pm 33.0 28.0 6.3 19 14.6 N 22 33 12 18 1009.9 1008.6 0.0
15/12:00pm 31.9 25.5 3.0 16 14.9 N 26 37 14 20 1010.5 1009.2 0.0
15/11:30am 31.1 26.0 7.5 23 13.0 N 24 33 13 18 1011.2 1009.8 0.0
15/11:00am 30.1 26.2 9.6 28 11.7 N 20 32 11 17 1011.7 1010.3 0.0
15/10:30am 29.3 25.5 9.9 30 11.0 N 20 30 11 16 1012.1 1010.7 0.0
15/10:00am 28.5 24.0 10.2 32 10.4 N 24 33 13 18 1012.6 1011.3 0.0
15/09:30am 27.4 22.9 10.2 34 9.7 N 24 33 13 18 1012.9 1011.6 0.0
15/09:00am 26.9 21.9 11.0 37 9.1 N 28 37 15 20 1013.2 1011.9 0.0
15/08:30am 25.1 20.6 11.3 42 7.9 N 26 35 14 19 1013.7 1012.4 0.0
15/08:00am 23.6 18.7 11.3 46 7.0 N 28 35 15 19 1014.0 1012.7 0.0
15/07:30am 22.8 19.0 11.2 48 6.5 NNE 22 28 12 15 1014.2 1012.9 0.0
15/07:00am 21.5 16.9 11.2 52 5.8 NNE 26 32 14 17 1014.4 1013.1 0.0
15/06:30am 20.1 16.4 11.6 58 4.8 NNE 22 30 12 16 1014.5 1013.2 0.0
15/06:00am 18.9 15.6 11.5 62 4.1 NNE 20 26 11 14 1014.6 1013.3 0.0
15/05:30am 17.9 15.0 11.0 64 3.8 NE 17 20 9 11 1014.6 1013.3 0.0
15/05:00am 17.4 15.2 10.8 65 3.6 NE 13 15 7 8 1014.5 1013.2 0.0
15/04:30am 18.4 15.8 10.8 61 4.2 NE 15 19 8 10 1014.2 1012.9 0.0
15/04:00am 18.9 16.3 10.7 59 4.5 NE 15 20 8 11 1014.0 1012.7 0.0
15/03:30am 18.8 16.5 10.4 58 4.6 NE 13 15 7 8 1013.9 1012.6 0.0
15/03:00am 19.7 17.4 10.4 55 5.1 NE 13 17 7 9 1013.6 1012.3 0.0
15/02:30am 20.4 18.4 10.2 52 5.6 NE 11 17 6 9 1013.7 1012.4 0.0
15/02:00am 21.0 18.2 9.9 49 6.1 NE 15 22 8 12 1013.6 1012.3 0.0
15/01:30am 21.9 18.7 9.8 46 6.6 ENE 17 28 9 15 1013.6 1012.3 0.0
15/01:00am 22.2 18.5 9.4 44 7.0 ENE 19 30 10 16 1013.8 1012.5 0.0
15/12:30am 22.6 18.4 8.3 40 7.6 E 20 26 11 14 1013.8 1012.5 0.0
15/12:00am 23.2 18.8 6.5 34 8.7 ENE 19 28 10 15 1013.8 1012.5 0.0
 
Date/Time
WST
Temp
°C
App
Temp
°C
Dew
Point
°C
Rel
Hum
%
Delta-T
°C
Wind Press
QNH
hPa
Press
MSL
hPa
Rain since
9am
mm
Dir  Spd
km/h
Gust
km/h
Spd
kts
Gust
kts
14/11:30pm 24.3 20.5 5.6 30 9.6 ENE 15 22 8 12 1013.8 1012.5 0.0
14/11:00pm 24.9 21.1 5.7 29 9.9 ENE 15 22 8 12 1013.7 1012.4 0.0
14/10:30pm 25.0 21.4 5.2 28 10.2 ENE 13 19 7 10 1013.7 1012.4 0.0
14/10:00pm 25.8 22.2 4.9 26 10.7 E 13 19 7 10 1013.8 1012.5 0.0
14/09:30pm 27.4 22.5 5.1 24 11.6 ENE 20 26 11 14 1013.7 1012.4 0.0
14/09:00pm 27.5 23.1 4.5 23 11.8 ENE 17 22 9 12 1013.6 1012.3 0.0
14/08:30pm 27.8 23.9 3.5 21 12.3 ENE 13 17 7 9 1013.4 1012.1 0.0
14/08:00pm 28.4 24.9 3.3 20 12.7 ENE 11 17 6 9 1013.2 1011.9 0.0
14/07:30pm 29.0 25.4 3.1 19 13.1 ENE 11 13 6 7 1013.0 1011.7 0.0
14/07:00pm 30.4 26.6 1.8 16 14.3 NE 11 17 6 9 1012.7 1011.4 0.0
14/06:30pm 32.0 27.5 2.1 15 15.2 ENE 15 20 8 11 1012.5 1011.2 0.0
14/06:00pm 32.6 27.5 0.6 13 15.9 ENE 17 22 9 12 1012.3 1011.0 0.0
14/05:30pm 33.1 27.7 1.0 13 16.1 ENE 19 33 10 18 1012.2 1010.8 0.0
14/05:00pm 33.1 27.6 2.1 14 15.8 E 20 28 11 15 1012.3 1011.0 0.0
14/04:30pm 33.3 28.8 2.2 14 15.9 ENE 15 22 8 12 1012.4 1011.1 0.0
14/04:00pm 32.8 28.8 2.8 15 15.5 NE 13 26 7 14 1012.8 1011.5 0.0
14/03:30pm 33.4 28.7 3.3 15 15.7 NE 17 24 9 13 1013.3 1012.0 0.0
14/03:00pm 32.7 27.5 3.6 16 15.2 ENE 20 30 11 16 1013.8 1012.5 0.0
14/02:30pm 32.6 28.5 4.4 17 14.9 ENE 15 26 8 14 1014.4 1013.1 0.0
14/02:00pm 31.4 28.6 5.0 19 14.0 ENE 9 19 5 10 1014.8 1013.5 0.0
14/01:30pm 30.1 28.2 9.1 27 11.8 NW 9 19 5 10 1015.5 1014.1 0.0
14/01:00pm 28.6 25.5 8.8 29 11.0 N 15 30 8 16 1016.2 1014.9 0.0
14/12:30pm 28.3 25.8 9.6 31 10.5 NNW 13 22 7 12 1016.8 1015.5 0.0
14/12:00pm 27.2 23.6 10.0 34 9.7 NNW 19 28 10 15 1017.2 1015.9 0.0
14/11:30am 26.3 22.0 9.2 34 9.5 N 22 35 12 19 1017.5 1016.2 0.0
14/11:00am 25.5 21.7 9.7 37 8.8 N 20 32 11 17 1017.9 1016.6 0.0
14/10:30am 24.9 21.5 10.4 40 8.1 N 19 30 10 16 1018.1 1016.8 0.0
14/10:00am 23.3 19.7 10.0 43 7.3 N 19 26 10 14 1018.4 1017.1 0.0
14/09:30am 22.3 19.1 10.1 46 6.7 N 17 24 9 13 1018.3 1017.0 0.0
14/09:00am 21.4 18.8 10.6 50 6.0 N 15 22 8 12 1018.5 1017.2 0.0
14/08:30am 19.2 16.4 9.9 55 5.0 NNE 15 20 8 11 1018.7 1017.4 0.0
14/08:00am 18.5 15.4 10.3 59 4.4 NNE 17 22 9 12 1018.9 1017.7 0.0
14/07:30am 17.0 13.4 10.4 65 3.6 NNE 20 26 11 14 1019.0 1017.8 0.0
14/07:00am 15.9 12.2 10.2 69 3.0 NNE 20 28 11 15 1018.9 1017.7 0.0
14/06:30am 14.9 12.1 9.9 72 2.6 NE 15 22 8 12 1018.9 1017.7 0.0
14/06:00am 13.8 11.6 9.5 75 2.2 NNE 11 15 6 8 1018.8 1017.5 0.0
14/05:30am 12.1 10.5 8.9 81 1.6 NE 7 9 4 5 1018.5 1017.2 0.0
14/05:00am 11.6 10.1 8.3 80 1.6 NE 6 7 3 4 1018.2 1016.9 0.0
14/04:30am 12.0 10.4 7.9 76 2.0 ENE 6 9 3 5 1018.1 1016.8 0.0
14/04:00am 12.2 11.7 7.7 74 2.2 CALM 0 0 0 0 1017.9 1016.6 0.0
14/03:30am 12.8 12.0 8.1 73 2.4 NE 2 7 1 4 1017.6 1016.3 0.0
14/03:00am 13.2 11.5 8.3 72 2.5 NE 7 11 4 6 1017.5 1016.2 0.0
14/02:30am 13.5 11.7 8.1 70 2.7 ENE 7 13 4 7 1017.4 1016.1 0.0
14/02:00am 13.9 11.4 8.3 69 2.8 ENE 11 17 6 9 1017.5 1016.2 0.0
14/01:30am 14.2 12.1 8.4 68 2.9 ENE 9 17 5 9 1017.5 1016.2 0.0
14/01:00am 14.6 12.5 8.3 66 3.2 E 9 15 5 8 1017.5 1016.2 0.0
14/12:30am 15.0 12.2 8.5 65 3.3 ESE 13 26 7 14 1017.6 1016.3 0.0
14/12:00am 15.3 12.1 8.5 64 3.5 SE 15 24 8 13 1017.6 1016.3 0.0
 
Date/Time
WST
Temp
°C
App
Temp
°C
Dew
Point
°C
Rel
Hum
%
Delta-T
°C
Wind Press
QNH
hPa
Press
MSL
hPa
Rain since
9am
mm
Dir  Spd
km/h
Gust
km/h
Spd
kts
Gust
kts
13/11:30pm 15.7 12.9 8.4 62 3.7 ESE 13 24 7 13 1017.9 1016.6 0.0

Other Formats:

Comma delimited format used in spreadsheet applications
http://www.bom.gov.au/fwo/IDW60801/IDW60801.95642.axf

JavaScript Object Notation format (JSON) in row-major order
http://www.bom.gov.au/fwo/IDW60801/IDW60801.95642.json